createdAt,value
2019-02-23T00:02:22.567Z,89.17
2019-02-23T00:04:51.133Z,88.94
2019-02-23T00:07:19.451Z,89.06
2019-02-23T00:09:48.090Z,89.15
2019-02-23T00:12:16.436Z,89.13
2019-02-23T00:14:44.722Z,89.13
2019-02-23T00:17:13.127Z,89.25
2019-02-23T00:19:41.416Z,89.32
2019-02-23T00:22:09.999Z,89.35
2019-02-23T00:24:38.661Z,89.33
2019-02-23T00:27:06.953Z,89.47
2019-02-23T00:29:35.264Z,89.55
2019-02-23T00:32:03.562Z,89.38
2019-02-23T00:34:31.875Z,89.35
2019-02-23T00:37:00.199Z,89.44
2019-02-23T00:39:28.528Z,89.49
2019-02-23T00:41:56.825Z,89.55
2019-02-23T00:44:25.134Z,89.41
2019-02-23T00:46:53.445Z,89.16
2019-02-23T00:49:21.848Z,89.34
2019-02-23T00:51:51.911Z,89.30
2019-02-23T00:54:20.285Z,89.34
2019-02-23T00:56:48.586Z,89.33
2019-02-23T00:59:17.217Z,89.34
2019-02-23T01:01:45.541Z,89.49
2019-02-23T01:04:13.831Z,89.64
2019-02-23T01:06:42.239Z,89.65
2019-02-23T01:09:10.604Z,89.68
2019-02-23T01:11:39.022Z,89.75
2019-02-23T01:14:07.319Z,89.76
2019-02-23T01:16:35.697Z,89.81
2019-02-23T01:19:04.332Z,89.90
2019-02-23T01:21:32.645Z,90.03
2019-02-23T01:24:00.951Z,90.13
2019-02-23T01:26:29.281Z,90.19
2019-02-23T01:28:57.572Z,89.95
2019-02-23T01:31:25.975Z,89.97
2019-02-23T01:33:54.593Z,89.98
2019-02-23T01:36:22.909Z,90.04
2019-02-23T01:38:51.211Z,90.16
2019-02-23T01:41:19.553Z,90.15
2019-02-23T01:43:47.839Z,89.97
2019-02-23T01:46:16.608Z,90.02
2019-02-23T01:48:44.899Z,89.83
2019-02-23T01:51:13.214Z,89.89
2019-02-23T01:53:41.522Z,89.94
2019-02-23T01:56:09.826Z,89.93
2019-02-23T01:58:38.115Z,89.88
2019-02-23T02:01:06.518Z,90.02
2019-02-23T02:03:34.876Z,89.99
2019-02-23T02:06:03.259Z,90.05
2019-02-23T02:08:31.915Z,90.11
2019-02-23T02:11:00.221Z,90.14
2019-02-23T02:13:28.530Z,90.08
2019-02-23T02:15:56.837Z,90.00
2019-02-23T02:18:25.160Z,90.13
2019-02-23T02:20:53.789Z,89.98
2019-02-23T02:23:22.086Z,89.81
2019-02-23T02:25:50.402Z,89.97
2019-02-23T02:28:18.700Z,89.89
2019-02-23T02:30:47.012Z,89.64
2019-02-23T02:33:15.696Z,89.37
2019-02-23T02:35:43.984Z,89.11
2019-02-23T02:38:12.566Z,89.25
2019-02-23T02:40:40.866Z,89.18
2019-02-23T02:43:09.191Z,89.26
2019-02-23T02:45:37.497Z,89.33
2019-02-23T02:48:05.802Z,89.33
2019-02-23T02:50:34.095Z,89.35
2019-02-23T02:53:02.410Z,89.40
2019-02-23T02:55:30.707Z,89.33
2019-02-23T02:57:59.019Z,89.30
2019-02-23T03:00:27.574Z,88.89
2019-02-23T03:02:55.957Z,88.69
2019-02-23T03:05:24.721Z,88.77
2019-02-23T03:07:53.040Z,88.83
2019-02-23T03:10:21.414Z,88.83
2019-02-23T03:12:49.735Z,88.84
2019-02-23T03:15:18.322Z,88.71
2019-02-23T03:17:46.642Z,88.58
2019-02-23T03:20:14.994Z,88.70
2019-02-23T03:22:43.311Z,88.93
2019-02-23T03:25:11.607Z,88.96
2019-02-23T03:27:39.920Z,89.20
2019-02-23T03:30:11.085Z,89.18
2019-02-23T03:32:39.377Z,88.96
2019-02-23T03:35:07.762Z,88.74
2019-02-23T03:37:36.131Z,88.70
2019-02-23T03:40:05.592Z,88.69
2019-02-23T03:42:33.925Z,88.67
2019-02-23T03:45:02.270Z,88.62
2019-02-23T03:47:30.548Z,88.87
2019-02-23T03:49:58.856Z,88.74
2019-02-23T03:52:27.163Z,88.82
2019-02-23T03:54:55.780Z,88.53
2019-02-23T03:57:24.088Z,88.53
2019-02-23T03:59:52.391Z,88.39
2019-02-23T04:02:20.683Z,88.08
2019-02-23T04:04:49.023Z,88.15
2019-02-23T04:07:17.319Z,88.25
2019-02-23T04:09:45.639Z,88.02
2019-02-23T04:12:13.956Z,87.85
2019-02-23T04:14:42.261Z,87.98
2019-02-23T04:17:10.573Z,88.14
2019-02-23T04:19:38.859Z,88.31
2019-02-23T04:22:07.166Z,88.19
2019-02-23T04:24:35.490Z,88.23
2019-02-23T04:27:04.172Z,88.37
2019-02-23T04:29:32.465Z,88.40
2019-02-23T04:32:00.784Z,88.49
2019-02-23T04:34:29.423Z,88.47
2019-02-23T04:36:57.724Z,88.44
2019-02-23T04:39:26.132Z,88.26
2019-02-23T04:41:54.431Z,88.27
2019-02-23T04:44:22.735Z,88.26
2019-02-23T04:46:53.881Z,88.25
2019-02-23T04:49:22.211Z,88.43
2019-02-23T04:51:50.504Z,88.62
2019-02-23T04:54:18.823Z,88.45
2019-02-23T04:56:47.178Z,88.30
2019-02-23T04:59:15.455Z,88.43
2019-02-23T05:01:43.748Z,88.68
2019-02-23T05:04:12.322Z,88.70
2019-02-23T05:06:41.587Z,88.61
2019-02-23T05:09:09.900Z,88.44
2019-02-23T05:11:38.190Z,88.30
2019-02-23T05:14:06.516Z,88.27
2019-02-23T05:16:34.868Z,88.29
2019-02-23T05:19:03.173Z,88.11
2019-02-23T05:21:31.487Z,88.04
2019-02-23T05:23:59.796Z,88.09
2019-02-23T05:26:28.106Z,88.16
2019-02-23T05:28:56.416Z,88.07
2019-02-23T05:31:24.724Z,88.04
2019-02-23T05:33:53.023Z,87.83
2019-02-23T05:36:21.390Z,87.92
2019-02-23T05:38:49.678Z,88.03
2019-02-23T05:41:18.007Z,88.00
2019-02-23T05:43:46.307Z,87.92
2019-02-23T05:46:14.653Z,87.97
2019-02-23T05:48:42.947Z,88.04
2019-02-23T05:51:11.255Z,87.87
2019-02-23T05:53:39.571Z,87.76
2019-02-23T05:56:08.178Z,87.59
2019-02-23T05:58:36.486Z,87.37
2019-02-23T06:01:04.796Z,87.32
2019-02-23T06:03:33.112Z,87.25
2019-02-23T06:06:01.408Z,87.13
2019-02-23T06:08:29.740Z,87.13
2019-02-23T06:10:58.058Z,87.03
2019-02-23T06:13:26.718Z,86.95
2019-02-23T06:15:55.036Z,86.93
2019-02-23T06:18:23.359Z,86.92
2019-02-23T06:20:51.657Z,86.86
2019-02-23T06:23:20.256Z,86.88
2019-02-23T06:25:48.523Z,86.89
2019-02-23T06:28:17.201Z,86.79
2019-02-23T06:30:45.522Z,86.86
2019-02-23T06:33:13.876Z,86.79
2019-02-23T06:35:42.529Z,86.67
2019-02-23T06:38:10.822Z,86.55
2019-02-23T06:40:39.131Z,86.63
2019-02-23T06:43:07.486Z,86.63
2019-02-23T06:45:35.812Z,86.66
2019-02-23T06:48:04.109Z,86.86
2019-02-23T06:50:32.440Z,86.95
2019-02-23T06:53:00.745Z,86.99
2019-02-23T06:55:29.070Z,86.93
2019-02-23T06:57:57.394Z,86.64
2019-02-23T07:00:25.729Z,86.53
2019-02-23T07:02:53.998Z,86.45
2019-02-23T07:05:22.565Z,86.45
2019-02-23T07:07:50.868Z,86.44
2019-02-23T07:10:19.172Z,86.39
2019-02-23T07:12:47.908Z,86.23
2019-02-23T07:15:16.283Z,86.05
2019-02-23T07:17:44.605Z,85.96
2019-02-23T07:20:12.968Z,85.85
2019-02-23T07:22:41.284Z,85.79
2019-02-23T07:25:10.257Z,85.69
2019-02-23T07:27:38.588Z,85.52
2019-02-23T07:30:14.272Z,85.44
2019-02-23T07:32:42.548Z,85.42
2019-02-23T07:35:11.242Z,85.58
2019-02-23T07:37:39.532Z,85.80
2019-02-23T07:40:10.242Z,85.89
2019-02-23T07:42:38.551Z,85.79
2019-02-23T07:45:08.897Z,85.53
2019-02-23T07:47:37.492Z,85.32
2019-02-23T07:50:08.983Z,85.21
2019-02-23T07:52:37.293Z,85.26
2019-02-23T07:55:06.365Z,85.33
2019-02-23T07:57:34.662Z,85.35
2019-02-23T08:00:02.978Z,85.04
2019-02-23T08:02:31.299Z,85.01
2019-02-23T08:04:59.923Z,84.72
2019-02-23T08:07:28.495Z,85.09
2019-02-23T08:09:56.848Z,85.12
2019-02-23T08:12:25.217Z,84.97
2019-02-23T08:14:53.520Z,84.99
2019-02-23T08:17:22.228Z,85.03
2019-02-23T08:19:50.515Z,85.18
2019-02-23T08:22:18.840Z,84.87
2019-02-23T08:24:47.471Z,84.89
2019-02-23T08:27:15.893Z,84.81
2019-02-23T08:29:44.275Z,84.65
2019-02-23T08:32:12.589Z,84.85
2019-02-23T08:34:40.884Z,84.90
2019-02-23T08:37:09.199Z,84.90
2019-02-23T08:39:37.516Z,84.75
2019-02-23T08:42:05.848Z,84.92
2019-02-23T08:44:34.134Z,85.10
2019-02-23T08:47:02.423Z,84.98
2019-02-23T08:49:30.752Z,84.87
2019-02-23T08:51:59.042Z,84.89
2019-02-23T08:54:27.372Z,84.54
2019-02-23T08:56:55.661Z,84.61
2019-02-23T08:59:23.981Z,84.50
2019-02-23T09:01:52.279Z,84.04
2019-02-23T09:04:20.588Z,83.67
2019-02-23T09:06:48.882Z,82.90
2019-02-23T09:09:17.204Z,83.29
2019-02-23T09:11:45.849Z,83.01
2019-02-23T09:14:14.173Z,82.82
2019-02-23T09:16:42.487Z,82.94
2019-02-23T09:19:10.787Z,82.38
2019-02-23T09:21:39.104Z,81.82
2019-02-23T09:24:07.432Z,80.69
2019-02-23T09:26:35.747Z,79.38
2019-02-23T09:29:04.308Z,78.90
2019-02-23T09:31:32.870Z,78.85
2019-02-23T09:34:01.166Z,78.93
2019-02-23T09:36:29.482Z,77.88
2019-02-23T09:38:58.131Z,77.75
2019-02-23T09:41:27.005Z,76.51
2019-02-23T09:43:55.312Z,76.53
2019-02-23T09:46:24.071Z,75.00
2019-02-23T09:48:52.362Z,74.23
2019-02-23T09:51:20.674Z,73.93
2019-02-23T09:53:49.041Z,74.17
2019-02-23T09:56:17.681Z,74.28
2019-02-23T09:58:45.989Z,73.94
2019-02-23T10:01:14.751Z,72.76
2019-02-23T10:03:43.061Z,72.13
2019-02-23T10:06:11.729Z,72.17
2019-02-23T10:08:40.031Z,72.04
2019-02-23T10:11:08.315Z,71.39
2019-02-23T10:13:36.657Z,70.77
2019-02-23T10:16:05.239Z,70.99
2019-02-23T10:18:33.658Z,70.53
2019-02-23T10:21:02.027Z,69.58
2019-02-23T10:23:30.358Z,68.90
2019-02-23T10:25:58.648Z,68.72
2019-02-23T10:28:27.224Z,68.50
2019-02-23T10:30:55.516Z,67.09
2019-02-23T10:33:23.849Z,66.97
2019-02-23T10:35:52.474Z,67.12
2019-02-23T10:38:20.786Z,67.22
2019-02-23T10:40:49.102Z,66.46
2019-02-23T10:43:17.410Z,66.00
2019-02-23T10:45:45.714Z,65.50
2019-02-23T10:48:14.363Z,65.30
2019-02-23T10:50:42.687Z,64.86
2019-02-23T10:53:11.017Z,64.84
2019-02-23T10:55:39.589Z,64.60
2019-02-23T10:58:07.913Z,63.77
2019-02-23T11:00:36.405Z,62.84
2019-02-23T11:03:04.896Z,62.06
2019-02-23T11:05:33.208Z,61.08
2019-02-23T11:08:01.581Z,61.39
2019-02-23T11:10:29.978Z,61.02
2019-02-23T11:12:58.378Z,61.04
2019-02-23T11:15:27.343Z,60.22
2019-02-23T11:17:55.668Z,60.09
2019-02-23T11:20:23.976Z,60.38
2019-02-23T11:22:52.579Z,60.34
2019-02-23T11:25:20.939Z,60.37
2019-02-23T11:27:49.555Z,59.66
2019-02-23T11:30:18.026Z,60.11
2019-02-23T11:32:46.349Z,60.22
2019-02-23T11:35:17.479Z,61.13
2019-02-23T11:37:46.073Z,61.40
2019-02-23T11:40:15.429Z,61.03
2019-02-23T11:42:43.730Z,60.95
2019-02-23T11:45:12.306Z,60.88
2019-02-23T11:47:40.716Z,60.91
2019-02-23T11:50:13.001Z,60.67
2019-02-23T11:52:41.370Z,61.02
2019-02-23T11:55:09.678Z,60.51
2019-02-23T11:57:37.981Z,60.23
2019-02-23T12:00:09.516Z,60.08
2019-02-23T12:02:38.239Z,60.08
2019-02-23T12:05:07.401Z,59.53
2019-02-23T12:07:35.801Z,58.24
2019-02-23T12:10:06.118Z,58.57
2019-02-23T12:12:34.426Z,57.85
2019-02-23T12:15:02.775Z,57.67
2019-02-23T12:17:31.179Z,57.52
2019-02-23T12:19:59.498Z,57.03
2019-02-23T12:22:27.798Z,57.10
2019-02-23T12:24:56.399Z,56.95
2019-02-23T12:27:24.965Z,56.52
2019-02-23T12:29:53.301Z,56.62
2019-02-23T12:32:21.864Z,56.38
2019-02-23T12:34:50.157Z,56.41
2019-02-23T12:37:18.485Z,56.67
2019-02-23T12:39:47.066Z,56.52
2019-02-23T12:42:15.396Z,56.20
2019-02-23T12:44:43.724Z,56.12
2019-02-23T12:47:12.300Z,55.94
2019-02-23T12:49:40.608Z,55.78
2019-02-23T12:52:08.932Z,55.71
2019-02-23T12:54:37.235Z,54.62
2019-02-23T12:57:05.553Z,55.44
2019-02-23T12:59:33.847Z,56.35
2019-02-23T13:02:02.168Z,56.38
2019-02-23T13:04:30.473Z,56.48
2019-02-23T13:06:58.770Z,56.53
2019-02-23T13:09:30.083Z,56.77
2019-02-23T13:12:04.220Z,56.65
2019-02-23T13:14:38.614Z,55.77
2019-02-23T13:17:26.731Z,55.42
2019-02-23T13:20:10.139Z,55.25
2019-02-23T13:23:08.786Z,54.88
2019-02-23T13:25:40.268Z,54.44
2019-02-23T13:28:23.473Z,54.66
2019-02-23T13:30:57.999Z,54.57
2019-02-23T13:34:00.154Z,54.46
2019-02-23T13:36:31.815Z,54.41
2019-02-23T13:39:18.574Z,54.14
2019-02-23T13:42:09.857Z,54.23
2019-02-23T13:45:13.414Z,54.52
2019-02-23T13:47:48.065Z,54.75
2019-02-23T13:50:31.442Z,54.59
2019-02-23T13:53:19.305Z,54.68
2019-02-23T13:56:05.879Z,54.66
2019-02-23T13:58:40.260Z,54.48
2019-02-23T14:01:18.336Z,53.84
2019-02-23T14:03:56.085Z,53.72
2019-02-23T14:06:51.380Z,53.92
2019-02-23T14:09:43.881Z,53.92
2019-02-23T14:12:27.286Z,54.13
2019-02-23T14:15:07.770Z,54.10
2019-02-23T14:17:47.556Z,53.87
2019-02-23T14:20:40.276Z,53.42
2019-02-23T14:23:34.137Z,53.45
2019-02-23T14:26:26.805Z,53.53
2019-02-23T14:29:24.254Z,53.41
2019-02-23T14:32:10.606Z,53.17
2019-02-23T14:35:03.095Z,53.03
2019-02-23T14:37:40.131Z,52.92
2019-02-23T14:40:23.686Z,52.52
2019-02-23T14:43:13.342Z,52.32
2019-02-23T14:45:44.826Z,52.10
2019-02-23T14:48:40.787Z,52.16
2019-02-23T14:51:21.332Z,51.91
2019-02-23T14:54:11.369Z,51.65
2019-02-23T14:56:42.907Z,51.59
2019-02-23T14:59:17.335Z,51.68
2019-02-23T15:02:00.872Z,51.29
2019-02-23T15:04:44.415Z,51.16
2019-02-23T15:07:27.284Z,51.14
2019-02-23T15:10:10.891Z,51.11
2019-02-23T15:13:00.395Z,51.16
2019-02-23T15:15:37.604Z,51.08
2019-02-23T15:18:33.208Z,51.33
2019-02-23T15:21:07.360Z,51.21
2019-02-23T15:23:50.670Z,51.36
2019-02-23T15:26:38.926Z,51.24
2019-02-23T15:29:26.728Z,51.23
2019-02-23T15:32:04.077Z,51.36
2019-02-23T15:34:41.291Z,51.55
2019-02-23T15:37:28.379Z,51.75
2019-02-23T15:40:11.659Z,51.70
2019-02-23T15:42:45.731Z,51.78
2019-02-23T15:45:32.394Z,52.11
2019-02-23T15:48:06.556Z,52.61
2019-02-23T15:50:34.816Z,52.68
2019-02-23T15:53:03.541Z,52.57
2019-02-23T15:55:31.862Z,52.68
2019-02-23T15:58:00.183Z,53.03
2019-02-23T16:00:28.573Z,53.24
2019-02-23T16:02:57.149Z,53.63
2019-02-23T16:05:25.531Z,53.54
2019-02-23T16:07:53.785Z,53.88
2019-02-23T16:10:22.229Z,54.05
2019-02-23T16:12:50.540Z,54.32
2019-02-23T16:15:18.850Z,54.49
2019-02-23T16:17:47.144Z,54.76
2019-02-23T16:20:15.459Z,55.25
2019-02-23T16:22:43.763Z,55.39
2019-02-23T16:25:12.094Z,55.53
2019-02-23T16:27:40.395Z,55.58
2019-02-23T16:30:10.542Z,56.12
2019-02-23T16:32:38.868Z,56.46
2019-02-23T16:35:08.244Z,56.57
2019-02-23T16:37:36.567Z,56.67
2019-02-23T16:40:06.130Z,56.84
2019-02-23T16:42:34.423Z,57.09
2019-02-23T16:45:03.072Z,56.80
2019-02-23T16:47:31.494Z,56.79
2019-02-23T16:49:59.810Z,56.99
2019-02-23T16:52:28.107Z,56.75
2019-02-23T16:54:56.398Z,56.79
2019-02-23T16:57:25.086Z,56.83
2019-02-23T16:59:53.370Z,56.91
2019-02-23T17:02:21.696Z,56.88
2019-02-23T17:04:53.649Z,56.73
2019-02-23T17:07:20.041Z,56.63
2019-02-23T17:09:48.338Z,56.50
2019-02-23T17:12:16.694Z,56.45
2019-02-23T17:14:45.074Z,56.46
2019-02-23T17:17:13.405Z,56.33
2019-02-23T17:19:42.642Z,56.34
2019-02-23T17:22:10.935Z,56.44
2019-02-23T17:24:39.272Z,56.49
2019-02-23T17:27:07.809Z,56.54
2019-02-23T17:29:36.442Z,56.70
2019-02-23T17:32:05.001Z,57.01
2019-02-23T17:34:33.321Z,57.21
2019-02-23T17:37:01.634Z,57.48
2019-02-23T17:39:29.998Z,57.68
2019-02-23T17:41:58.298Z,57.96
2019-02-23T17:44:26.858Z,58.26
2019-02-23T17:46:55.170Z,58.71
2019-02-23T17:49:23.504Z,59.07
2019-02-23T17:51:52.167Z,59.38
2019-02-23T17:54:20.468Z,59.73
2019-02-23T17:56:48.792Z,60.13
2019-02-23T17:59:17.079Z,60.57
2019-02-23T18:01:45.472Z,61.17
2019-02-23T18:04:13.814Z,61.56
2019-02-23T18:06:42.134Z,61.96
2019-02-23T18:09:10.434Z,62.30
2019-02-23T18:11:39.099Z,62.43
2019-02-23T18:14:07.481Z,62.59
2019-02-23T18:16:36.038Z,62.64
2019-02-23T18:19:04.347Z,62.99
2019-02-23T18:21:33.011Z,63.26
2019-02-23T18:24:01.340Z,63.72
2019-02-23T18:26:29.681Z,64.09
2019-02-23T18:28:58.002Z,64.36
2019-02-23T18:31:26.307Z,64.56
2019-02-23T18:33:54.617Z,64.82
2019-02-23T18:36:22.940Z,64.95
2019-02-23T18:38:51.281Z,65.03
2019-02-23T18:41:19.584Z,65.24
2019-02-23T18:43:48.208Z,65.60
2019-02-23T18:46:16.518Z,65.97
2019-02-23T18:48:44.808Z,66.29
2019-02-23T18:51:13.442Z,66.55
2019-02-23T18:53:42.030Z,67.06
2019-02-23T18:56:10.364Z,67.61
2019-02-23T18:58:38.661Z,67.92
2019-02-23T19:01:07.002Z,68.32
2019-02-23T19:03:35.287Z,68.51
2019-02-23T19:06:03.695Z,68.75
2019-02-23T19:08:31.989Z,69.08
2019-02-23T19:11:00.310Z,69.24
2019-02-23T19:13:28.604Z,69.39
2019-02-23T19:15:56.906Z,69.47
2019-02-23T19:18:25.228Z,69.46
2019-02-23T19:20:53.527Z,69.71
2019-02-23T19:23:22.182Z,69.93
2019-02-23T19:25:50.478Z,70.19
2019-02-23T19:28:18.803Z,70.34
2019-02-23T19:30:47.357Z,70.48
2019-02-23T19:33:15.725Z,70.67
2019-02-23T19:35:44.363Z,70.76
2019-02-23T19:38:12.955Z,70.79
2019-02-23T19:40:41.352Z,70.51
2019-02-23T19:43:09.660Z,70.45
2019-02-23T19:45:37.970Z,70.61
2019-02-23T19:48:06.283Z,70.78
2019-02-23T19:50:37.870Z,70.84
2019-02-23T19:53:06.166Z,70.89
2019-02-23T19:55:34.479Z,70.85
2019-02-23T19:58:02.769Z,70.80
2019-02-23T20:00:31.071Z,70.66
2019-02-23T20:02:59.366Z,70.50
2019-02-23T20:05:27.688Z,70.56
2019-02-23T20:07:56.269Z,70.75
2019-02-23T20:10:24.602Z,70.80
2019-02-23T20:12:52.906Z,71.05
2019-02-23T20:15:21.242Z,71.26
2019-02-23T20:17:49.556Z,71.52
2019-02-23T20:20:17.869Z,71.74
2019-02-23T20:22:46.169Z,71.97
2019-02-23T20:25:14.807Z,72.25
2019-02-23T20:27:43.128Z,72.56
2019-02-23T20:30:12.633Z,72.73
2019-02-23T20:32:40.934Z,72.97
2019-02-23T20:35:10.060Z,73.09
2019-02-23T20:37:38.366Z,73.35
2019-02-23T20:40:08.774Z,73.47
2019-02-23T20:42:37.095Z,73.70
2019-02-23T20:45:07.544Z,73.77
2019-02-23T20:47:35.903Z,73.61
2019-02-23T20:50:07.075Z,73.40
2019-02-23T20:52:35.401Z,73.37
2019-02-23T20:55:04.191Z,73.52
2019-02-23T20:57:32.593Z,73.85
2019-02-23T21:00:00.900Z,74.04
2019-02-23T21:02:29.196Z,74.13
2019-02-23T21:04:57.531Z,74.45
2019-02-23T21:07:25.826Z,74.46
2019-02-23T21:09:54.131Z,74.34
2019-02-23T21:12:22.531Z,74.35
2019-02-23T21:14:50.936Z,74.55
2019-02-23T21:17:19.227Z,74.75
2019-02-23T21:19:47.547Z,74.92
2019-02-23T21:22:15.833Z,75.00
2019-02-23T21:24:44.151Z,75.09
2019-02-23T21:27:13.174Z,75.17
2019-02-23T21:29:41.626Z,75.05
2019-02-23T21:32:10.202Z,75.04
2019-02-23T21:34:38.502Z,74.88
2019-02-23T21:37:06.832Z,74.82
2019-02-23T21:39:35.113Z,75.00
2019-02-23T21:42:03.437Z,74.97
2019-02-23T21:44:31.740Z,74.59
2019-02-23T21:47:00.045Z,74.42
2019-02-23T21:49:28.341Z,74.28
2019-02-23T21:51:56.667Z,74.21
2019-02-23T21:54:25.361Z,74.23
2019-02-23T21:56:53.676Z,74.23
2019-02-23T21:59:21.971Z,74.22
2019-02-23T22:01:50.306Z,74.23
2019-02-23T22:04:18.611Z,74.25
2019-02-23T22:06:47.248Z,74.24
2019-02-23T22:09:15.552Z,74.19
2019-02-23T22:11:43.869Z,74.38
2019-02-23T22:14:12.172Z,74.37
2019-02-23T22:16:40.464Z,74.29
2019-02-23T22:19:08.793Z,74.31
2019-02-23T22:21:37.083Z,74.44
2019-02-23T22:24:05.655Z,74.40
2019-02-23T22:26:33.962Z,74.32
2019-02-23T22:29:02.270Z,74.50
2019-02-23T22:31:30.562Z,74.50
2019-02-23T22:33:58.868Z,74.39
2019-02-23T22:36:27.206Z,74.41
2019-02-23T22:38:55.519Z,74.38
2019-02-23T22:41:23.883Z,74.19
2019-02-23T22:43:52.176Z,74.38
2019-02-23T22:46:20.506Z,74.39
2019-02-23T22:48:48.808Z,74.41
2019-02-23T22:51:17.143Z,74.33
2019-02-23T22:53:45.419Z,74.21
2019-02-23T22:56:13.995Z,74.08
2019-02-23T22:58:42.597Z,74.06
2019-02-23T23:01:11.368Z,74.08
2019-02-23T23:03:39.667Z,73.98
2019-02-23T23:06:07.988Z,73.96
2019-02-23T23:08:36.291Z,73.74
2019-02-23T23:11:04.618Z,73.64
2019-02-23T23:13:32.906Z,73.63
2019-02-23T23:16:01.274Z,73.51
2019-02-23T23:18:29.561Z,73.19
2019-02-23T23:20:57.854Z,73.18
2019-02-23T23:23:26.182Z,73.19
2019-02-23T23:25:54.476Z,73.08
2019-02-23T23:28:23.034Z,72.91
2019-02-23T23:30:51.354Z,72.87
2019-02-23T23:33:19.680Z,72.98
2019-02-23T23:35:48.189Z,73.04
2019-02-23T23:38:16.498Z,73.15
2019-02-23T23:40:45.039Z,73.41
2019-02-23T23:43:13.349Z,73.19
2019-02-23T23:45:41.654Z,73.00
2019-02-23T23:48:09.985Z,72.60
2019-02-23T23:50:38.293Z,72.68
2019-02-23T23:53:06.620Z,72.52
2019-02-23T23:55:34.903Z,72.48
2019-02-23T23:58:03.247Z,72.44
